Time;durP1;ratioP1;P1;durP2;ratioP2;P2;SDS_P1;SDS_P2;PMS_P1;PMS_P2;Temp;Humidity;BMP_temperature;BMP_pressure;BME280_temperature;BME280_humidity;BME280_pressure;Samples;Min_cycle;Max_cycle;Signal;HPM_P1;HPM_P2
2022/07/26 00:00:43;;;;;;;8.38;4.35;;;;;;;20.37;75.37;100637.16;1928653;74;21591;-61
2022/07/26 00:03:13;;;;;;;7.25;4.62;;;;;;;20.32;75.36;100635.34;1928795;74;21023;-61
2022/07/26 00:05:42;;;;;;;4.65;3.77;;;;;;;20.27;75.42;100631.34;1928707;74;21030;-61
2022/07/26 00:08:11;;;;;;;5.40;4.35;;;;;;;20.21;75.58;100631.36;1928643;74;21124;-61
2022/07/26 00:10:42;;;;;;;6.35;4.50;;;;;;;20.20;75.67;100632.34;1928629;74;21469;-62
2022/07/26 00:13:12;;;;;;;7.17;3.77;;;;;;;20.15;75.75;100631.86;1928639;74;21110;-60
2022/07/26 00:15:42;;;;;;;4.85;3.90;;;;;;;20.14;75.83;100632.83;1928667;74;21020;-60
2022/07/26 00:18:11;;;;;;;4.87;4.20;;;;;;;20.15;75.93;100638.05;1928677;74;21040;-60
2022/07/26 00:20:40;;;;;;;6.47;4.37;;;;;;;20.16;76.00;100628.20;1928655;74;21024;-60
2022/07/26 00:23:09;;;;;;;6.87;3.87;;;;;;;20.18;76.01;100627.62;1928575;74;21465;-63
2022/07/26 00:25:38;;;;;;;5.33;4.20;;;;;;;20.19;76.18;100627.96;1928599;74;21090;-60
2022/07/26 00:28:07;;;;;;;7.58;4.50;;;;;;;20.22;76.39;100629.90;1928659;74;21474;-61
2022/07/26 00:30:35;;;;;;;5.80;4.22;;;;;;;20.23;76.36;100626.73;1928613;74;21093;-60
2022/07/26 00:33:05;;;;;;;7.37;4.80;;;;;;;20.21;76.27;100626.01;1928735;74;21176;-61
2022/07/26 00:35:34;;;;;;;7.58;4.53;;;;;;;20.21;76.21;100620.66;1928715;74;21481;-60
2022/07/26 00:38:02;;;;;;;10.75;4.60;;;;;;;20.20;76.20;100618.98;1928759;74;21189;-60
2022/07/26 00:40:31;;;;;;;6.15;4.20;;;;;;;20.17;76.25;100622.73;1928868;74;21030;-61
2022/07/26 00:43:01;;;;;;;5.58;4.17;;;;;;;20.17;76.29;100621.89;1928887;74;21108;-60
2022/07/26 00:45:29;;;;;;;5.47;3.90;;;;;;;20.17;76.37;100623.23;1928984;74;21051;-61
2022/07/26 00:47:58;;;;;;;8.38;4.37;;;;;;;20.15;76.41;100619.34;1928856;74;21055;-61
2022/07/26 00:50:27;;;;;;;11.55;4.75;;;;;;;20.15;76.48;100616.67;1928657;74;21027;-60
2022/07/26 00:52:56;;;;;;;6.00;4.17;;;;;;;20.20;76.57;100624.33;1928763;74;21528;-60
2022/07/26 00:55:24;;;;;;;5.42;4.03;;;;;;;20.27;76.59;100624.19;1928738;74;21027;-62
2022/07/26 00:57:53;;;;;;;5.33;4.53;;;;;;;20.31;76.55;100629.64;1928798;74;21116;-60
2022/07/26 01:00:26;;;;;;;5.55;4.10;;;;;;;20.38;76.54;100624.63;1928877;73;21101;-60
2022/07/26 01:02:57;;;;;;;5.90;3.83;;;;;;;20.43;76.43;100628.61;1928903;74;21579;-61
2022/07/26 01:05:26;;;;;;;6.87;4.28;;;;;;;20.46;76.33;100624.02;1928755;74;21569;-60
2022/07/26 01:07:56;;;;;;;9.95;4.53;;;;;;;20.48;76.27;100616.71;1928740;74;21475;-60
2022/07/26 01:10:25;;;;;;;9.28;4.60;;;;;;;20.49;76.21;100617.93;1928753;74;21003;-60
2022/07/26 01:12:54;;;;;;;10.40;4.20;;;;;;;20.50;76.19;100616.09;1928760;74;21547;-60
2022/07/26 01:15:22;;;;;;;6.28;4.40;;;;;;;20.50;76.13;100621.44;1928651;74;21103;-60
2022/07/26 01:17:51;;;;;;;6.65;4.80;;;;;;;20.46;76.12;100613.32;1928779;74;21066;-60
2022/07/26 01:20:20;;;;;;;6.60;4.15;;;;;;;20.43;76.14;100613.91;1928835;74;20991;-60
2022/07/26 01:22:48;;;;;;;6.12;4.40;;;;;;;20.39;76.12;100609.80;1928781;74;21023;-60
2022/07/26 01:25:18;;;;;;;6.30;4.58;;;;;;;20.36;76.13;100611.88;1928773;74;21477;-61
2022/07/26 01:27:47;;;;;;;5.92;4.95;;;;;;;20.33;76.17;100617.00;1927518;73;21020;-62
2022/07/26 01:30:15;;;;;;;8.05;4.78;;;;;;;20.31;76.21;100612.77;1928650;74;21089;-61
2022/07/26 01:32:44;;;;;;;6.87;4.47;;;;;;;20.30;76.25;100617.23;1928895;74;21089;-61
2022/07/26 01:35:13;;;;;;;7.40;5.35;;;;;;;20.29;76.30;100618.23;1928729;74;21081;-61
2022/07/26 01:37:42;;;;;;;7.28;4.78;;;;;;;20.29;76.31;100615.55;1928737;74;21559;-61
2022/07/26 01:40:13;;;;;;;6.22;4.33;;;;;;;20.30;76.30;100613.23;1928785;74;21023;-60
2022/07/26 01:42:42;;;;;;;7.67;4.33;;;;;;;20.31;76.33;100610.92;1928656;74;21105;-60
2022/07/26 01:45:12;;;;;;;8.45;3.90;;;;;;;20.32;76.38;100619.30;1928761;74;21038;-60
2022/07/26 01:47:41;;;;;;;5.10;4.25;;;;;;;20.34;76.39;100612.48;1928674;74;21511;-60
2022/07/26 01:50:10;;;;;;;8.83;4.47;;;;;;;20.34;76.39;100616.50;1928747;74;21027;-60
2022/07/26 01:52:39;;;;;;;6.62;4.45;;;;;;;20.33;76.41;100615.66;1928826;74;21027;-60
2022/07/26 01:55:08;;;;;;;7.30;4.80;;;;;;;20.33;76.50;100614.32;1928606;74;21027;-61
2022/07/26 01:57:37;;;;;;;7.70;4.33;;;;;;;20.34;76.53;100605.80;1928867;74;20987;-60
2022/07/26 02:00:07;;;;;;;8.85;5.12;;;;;;;20.34;76.53;100611.99;1928732;74;20991;-60
2022/07/26 02:02:35;;;;;;;7.35;4.62;;;;;;;20.33;76.52;100611.65;1928852;74;21148;-60
2022/07/26 02:05:05;;;;;;;7.28;4.72;;;;;;;20.34;76.59;100610.66;1928742;74;21027;-60
2022/07/26 02:07:42;;;;;;;5.17;3.90;;;;;;;20.35;76.68;100611.03;1928624;74;21532;-61
2022/07/26 02:10:13;;;;;;;5.40;4.10;;;;;;;20.37;76.81;100605.06;1928778;74;21505;-60
2022/07/26 02:12:41;;;;;;;9.18;5.35;;;;;;;20.38;76.79;100601.89;1928695;74;21038;-61
2022/07/26 02:15:12;;;;;;;6.42;3.95;;;;;;;20.36;76.78;100604.72;1928861;74;21033;-61
2022/07/26 02:17:40;;;;;;;5.55;4.75;;;;;;;20.35;76.70;100599.00;1928880;74;21030;-60
2022/07/26 02:20:10;;;;;;;10.45;4.90;;;;;;;20.34;76.65;100602.63;1928602;74;21031;-61
2022/07/26 02:22:38;;;;;;;7.60;5.47;;;;;;;20.31;76.63;100597.56;1928872;74;21019;-60
2022/07/26 02:25:07;;;;;;;7.08;4.97;;;;;;;20.28;76.62;100603.14;1928761;74;21090;-60
2022/07/26 02:27:36;;;;;;;9.38;5.08;;;;;;;20.27;76.58;100606.81;1928840;74;21055;-60
2022/07/26 02:30:05;;;;;;;10.35;4.85;;;;;;;20.25;76.59;100600.72;1928771;74;20996;-60
2022/07/26 02:32:34;;;;;;;9.00;4.58;;;;;;;20.27;76.60;100598.80;1928746;74;21023;-61
2022/07/26 02:35:03;;;;;;;9.73;5.05;;;;;;;20.30;76.75;100593.17;1928707;74;21015;-60
2022/07/26 02:37:31;;;;;;;6.22;4.40;;;;;;;20.38;76.87;100587.19;1928767;74;21461;-61
2022/07/26 02:40:01;;;;;;;7.35;3.70;;;;;;;20.47;76.94;100594.45;1928745;74;21035;-59
2022/07/26 02:42:30;;;;;;;6.08;3.98;;;;;;;20.59;77.01;100603.30;1928740;74;21501;-59
2022/07/26 02:45:00;;;;;;;7.35;4.37;;;;;;;20.71;77.14;100607.66;1928743;74;21043;-59
2022/07/26 02:47:29;;;;;;;7.17;3.87;;;;;;;20.89;77.23;100599.05;1928797;74;21094;-60
2022/07/26 02:49:58;;;;;;;5.60;4.17;;;;;;;21.05;77.21;100599.94;1928641;74;21042;-61
2022/07/26 02:52:26;;;;;;;7.47;5.87;;;;;;;21.19;77.04;100601.78;1928718;74;21062;-60
2022/07/26 02:54:55;;;;;;;18.30;6.45;;;;;;;21.35;76.95;100591.08;1928739;74;21093;-60
2022/07/26 02:57:23;;;;;;;16.85;7.05;;;;;;;21.54;77.02;100598.38;1928641;74;21027;-61
2022/07/26 02:59:52;;;;;;;11.12;5.65;;;;;;;21.75;77.13;100605.03;1928641;74;21043;-61
2022/07/26 03:02:20;;;;;;;12.10;5.08;;;;;;;22.02;77.12;100595.51;1928732;74;21108;-61
2022/07/26 03:04:49;;;;;;;9.85;4.70;;;;;;;22.32;76.68;100603.50;1928781;74;21031;-61
2022/07/26 03:07:17;;;;;;;8.25;4.53;;;;;;;22.59;76.11;100596.59;1928699;74;21027;-60
2022/07/26 03:09:46;;;;;;;9.65;3.70;;;;;;;22.76;75.63;100604.45;1928937;74;21552;-61
2022/07/26 03:12:16;;;;;;;6.17;3.65;;;;;;;22.93;75.32;100596.99;1928741;74;21023;-60
2022/07/26 03:14:45;;;;;;;7.72;4.22;;;;;;;23.13;75.39;100608.58;1928697;74;21564;-61
2022/07/26 03:17:13;;;;;;;7.33;3.87;;;;;;;23.39;75.00;100607.95;1928743;74;21105;-61
2022/07/26 03:19:42;;;;;;;10.95;4.25;;;;;;;23.38;74.25;100610.78;1928692;74;21030;-61
2022/07/26 03:22:11;;;;;;;3.72;3.22;;;;;;;23.25;73.83;100611.09;1928800;74;21027;-60
2022/07/26 03:24:39;;;;;;;13.18;6.83;;;;;;;23.31;74.12;100605.12;1928669;74;21031;-61
2022/07/26 03:27:08;;;;;;;30.75;9.30;;;;;;;23.43;74.54;100606.66;1928648;74;21481;-60
2022/07/26 03:29:37;;;;;;;8.28;4.60;;;;;;;23.47;74.64;100616.11;1928845;74;21106;-61
2022/07/26 03:32:06;;;;;;;10.70;5.17;;;;;;;23.49;74.50;100611.44;1928663;74;21027;-61
2022/07/26 03:34:34;;;;;;;8.38;4.60;;;;;;;23.62;74.57;100615.64;1928775;74;21097;-60
2022/07/26 03:37:04;;;;;;;6.90;4.30;;;;;;;23.68;74.60;100613.69;1928757;74;21039;-60
2022/07/26 03:39:32;;;;;;;6.47;4.22;;;;;;;23.67;74.31;100616.05;1928600;74;21097;-59
2022/07/26 03:42:01;;;;;;;10.98;4.40;;;;;;;23.69;74.09;100620.27;1928693;74;21039;-59
2022/07/26 03:44:30;;;;;;;8.48;5.53;;;;;;;23.77;74.02;100622.72;1928784;74;21023;-62
2022/07/26 03:46:58;;;;;;;14.98;6.45;;;;;;;23.86;73.95;100617.83;1928664;74;21513;-62
2022/07/26 03:49:28;;;;;;;10.88;5.75;;;;;;;23.98;73.78;100609.08;1925672;74;21054;-62
2022/07/26 03:51:56;;;;;;;4.47;3.83;;;;;;;24.12;73.68;100607.20;1906298;75;21008;-60
2022/07/26 03:54:25;;;;;;;6.45;3.70;;;;;;;24.24;73.33;100619.95;1906295;75;21001;-59
2022/07/26 03:56:53;;;;;;;4.47;3.33;;;;;;;24.16;72.71;100613.99;1906397;75;21051;-60
2022/07/26 03:59:24;;;;;;;6.60;3.58;;;;;;;24.25;72.41;100612.21;1906320;75;21000;-59
2022/07/26 04:01:53;;;;;;;4.83;4.00;;;;;;;24.22;71.92;100618.75;1906326;75;20988;-60
2022/07/26 04:04:21;;;;;;;13.25;4.65;;;;;;;24.09;71.36;100611.05;1906248;75;20997;-59
2022/07/26 04:06:50;;;;;;;6.67;3.65;;;;;;;23.97;70.81;100617.63;1906423;75;21028;-60
2022/07/26 04:09:18;;;;;;;4.58;2.80;;;;;;;23.79;70.22;100615.34;1906335;75;21106;-60
2022/07/26 04:11:47;;;;;;;5.60;2.98;;;;;;;23.69;69.75;100612.72;1906433;75;21475;-60
2022/07/26 04:14:16;;;;;;;4.78;2.55;;;;;;;23.57;69.11;100609.86;1906394;75;21028;-60
2022/07/26 04:16:44;;;;;;;10.03;3.58;;;;;;;23.44;68.64;100614.21;1906427;75;21545;-60
2022/07/26 04:19:13;;;;;;;3.83;2.87;;;;;;;23.31;67.66;100621.25;1906393;75;21593;-60
2022/07/26 04:21:42;;;;;;;3.33;2.95;;;;;;;23.18;66.83;100619.38;1906539;75;21094;-60
2022/07/26 04:24:10;;;;;;;5.17;2.60;;;;;;;23.09;66.64;100617.92;1906474;75;21008;-60
2022/07/26 04:26:39;;;;;;;4.47;2.65;;;;;;;23.03;66.56;100618.45;1906618;75;21470;-60
2022/07/26 04:29:08;;;;;;;3.22;2.70;;;;;;;23.07;66.45;100615.02;1906507;75;21145;-60
2022/07/26 04:31:37;;;;;;;4.20;2.70;;;;;;;23.16;66.37;100617.34;1906420;75;21036;-60
2022/07/26 04:34:06;;;;;;;4.42;2.65;;;;;;;23.06;64.66;100611.49;1906575;75;21020;-60
2022/07/26 04:36:34;;;;;;;7.75;3.00;;;;;;;22.93;63.74;100623.84;1906509;75;21024;-59
2022/07/26 04:39:03;;;;;;;3.75;2.75;;;;;;;22.84;63.46;100621.17;1906521;75;21479;-60
2022/07/26 04:41:31;;;;;;;13.22;2.70;;;;;;;22.79;63.53;100631.48;1906511;75;21098;-60
2022/07/26 04:44:00;;;;;;;4.25;2.40;;;;;;;23.05;62.77;100632.61;1906376;75;21105;-61
2022/07/26 04:46:28;;;;;;;4.85;2.45;;;;;;;23.18;62.84;100631.47;1906607;75;21024;-60
2022/07/26 04:48:57;;;;;;;5.80;2.92;;;;;;;23.29;62.59;100642.05;1906476;75;21024;-60
2022/07/26 04:51:26;;;;;;;6.65;2.87;;;;;;;23.52;62.47;100639.88;1906576;75;21518;-60
2022/07/26 04:53:54;;;;;;;4.60;2.10;;;;;;;24.02;61.87;100646.77;1906479;75;21114;-60
2022/07/26 04:56:23;;;;;;;6.03;2.52;;;;;;;24.65;61.47;100646.80;1906461;75;21000;-60
2022/07/26 04:58:51;;;;;;;3.83;2.12;;;;;;;25.22;59.74;100653.66;1906461;75;21028;-60
2022/07/26 05:01:20;;;;;;;4.25;2.17;;;;;;;25.41;59.79;100645.39;1906505;75;21021;-60
2022/07/26 05:03:49;;;;;;;4.08;2.92;;;;;;;25.42;58.23;100637.66;1906440;74;21153;-60
2022/07/26 05:06:17;;;;;;;3.83;2.75;;;;;;;25.94;58.94;100637.28;1906618;75;21023;-60
2022/07/26 05:08:46;;;;;;;2.87;2.27;;;;;;;26.34;58.19;100634.38;1906492;75;21114;-59
2022/07/26 05:11:14;;;;;;;3.45;2.65;;;;;;;26.12;57.82;100640.72;1906478;75;21463;-60
2022/07/26 05:13:43;;;;;;;5.50;2.72;;;;;;;26.04;57.98;100643.37;1906457;74;21098;-60
2022/07/26 05:16:11;;;;;;;2.95;1.12;;;;;;;25.77;58.21;100654.70;1906458;74;21094;-60
2022/07/26 05:18:40;;;;;;;2.72;2.25;;;;;;;25.31;58.83;100667.58;1906438;75;21004;-60
2022/07/26 05:21:09;;;;;;;3.35;2.22;;;;;;;24.90;59.33;100653.77;1906553;75;21035;-60
2022/07/26 05:23:37;;;;;;;4.47;2.10;;;;;;;24.63;59.87;100658.22;1906402;75;21145;-61
2022/07/26 05:26:06;;;;;;;3.17;2.42;;;;;;;24.52;60.23;100650.84;1906556;75;21059;-60
2022/07/26 05:28:35;;;;;;;3.37;2.27;;;;;;;24.39;60.57;100638.59;1906469;75;21028;-60
2022/07/26 05:31:03;;;;;;;2.80;2.08;;;;;;;24.69;60.86;100635.73;1906556;75;21082;-60
2022/07/26 05:33:32;;;;;;;4.15;2.47;;;;;;;25.33;61.09;100630.53;1906448;75;21156;-60
2022/07/26 05:36:01;;;;;;;2.65;2.02;;;;;;;26.14;60.98;100623.85;1906439;75;21548;-60
2022/07/26 05:38:29;;;;;;;2.90;2.55;;;;;;;26.98;60.53;100622.44;1906338;75;21168;-60
2022/07/26 05:40:58;;;;;;;2.80;2.00;;;;;;;27.47;59.84;100624.27;1906494;75;21100;-60
2022/07/26 05:43:27;;;;;;;3.15;2.02;;;;;;;27.36;58.99;100619.23;1906575;75;21459;-60
2022/07/26 05:45:57;;;;;;;2.12;1.57;;;;;;;27.25;56.14;100617.18;1906571;75;21036;-60
2022/07/26 05:48:26;;;;;;;2.05;1.75;;;;;;;27.64;55.13;100606.95;1906474;75;21458;-59
2022/07/26 05:50:54;;;;;;;2.33;1.90;;;;;;;28.05;52.74;100603.25;1907779;74;21024;-60
2022/07/26 05:53:23;;;;;;;2.20;1.92;;;;;;;28.49;52.87;100603.98;1928755;74;21032;-60
2022/07/26 05:55:52;;;;;;;2.35;1.90;;;;;;;28.74;51.15;100607.39;1928756;74;21513;-60
2022/07/26 05:58:20;;;;;;;4.45;2.00;;;;;;;29.05;50.77;100605.09;1928834;74;21035;-60
2022/07/26 06:00:49;;;;;;;4.85;1.98;;;;;;;29.10;50.16;100605.36;1928718;74;21307;-59
2022/07/26 06:03:24;;;;;;;2.72;2.27;;;;;;;28.66;49.96;100602.89;1928720;73;21551;-60
2022/07/26 06:05:56;;;;;;;2.75;1.87;;;;;;;28.38;48.95;100601.19;1928843;74;21011;-60
2022/07/26 06:08:26;;;;;;;5.22;2.15;;;;;;;28.02;49.43;100601.75;1928968;74;21108;-59
2022/07/26 06:10:55;;;;;;;2.10;1.70;;;;;;;28.33;50.12;100598.20;1928790;74;21445;-60
2022/07/26 06:13:23;;;;;;;4.10;2.25;;;;;;;28.69;49.97;100598.96;1928748;74;21007;-60
2022/07/26 06:15:52;;;;;;;6.67;2.85;;;;;;;28.55;49.57;100611.93;1928899;74;21517;-59
2022/07/26 06:18:21;;;;;;;2.65;1.70;;;;;;;28.34;49.00;100603.92;1928713;74;21058;-60
2022/07/26 06:20:50;;;;;;;3.20;1.70;;;;;;;28.61;48.30;100603.10;1928734;74;21112;-60
2022/07/26 06:23:19;;;;;;;3.12;1.50;;;;;;;28.89;48.28;100603.36;1928966;74;21074;-60
2022/07/26 06:25:48;;;;;;;2.15;1.90;;;;;;;29.22;47.54;100599.02;1928849;73;21108;-60
2022/07/26 06:28:17;;;;;;;1.75;1.45;;;;;;;29.59;47.36;100591.30;1928660;74;21458;-60
2022/07/26 06:30:45;;;;;;;2.20;2.00;;;;;;;29.90;46.64;100592.98;1928841;74;21082;-59
2022/07/26 06:33:14;;;;;;;5.70;2.50;;;;;;;30.16;46.54;100590.25;1928673;74;21026;-60
2022/07/26 06:35:42;;;;;;;2.20;1.70;;;;;;;30.25;45.15;100592.30;1928841;74;21023;-60
2022/07/26 06:38:11;;;;;;;5.67;1.95;;;;;;;30.20;45.65;100592.89;1928680;74;21058;-60
2022/07/26 06:40:39;;;;;;;3.05;1.60;;;;;;;30.22;45.86;100585.39;1928731;74;21485;-60
2022/07/26 06:43:08;;;;;;;3.87;1.87;;;;;;;30.27;45.99;100587.52;1928740;74;21003;-60
2022/07/26 06:45:37;;;;;;;4.00;2.08;;;;;;;30.37;46.22;100584.84;1928765;74;20996;-60
2022/07/26 06:48:06;;;;;;;2.30;1.70;;;;;;;30.53;46.06;100587.83;1928805;74;21106;-59
2022/07/26 06:50:35;;;;;;;3.52;1.62;;;;;;;30.87;46.25;100578.59;1928828;74;21105;-59
2022/07/26 06:53:03;;;;;;;3.10;1.57;;;;;;;31.16;45.50;100581.13;1914835;74;21117;-60
2022/07/26 06:55:32;;;;;;;5.90;1.95;;;;;;;30.78;45.39;100578.75;1906304;75;21059;-60
2022/07/26 06:58:00;;;;;;;2.67;2.10;;;;;;;30.70;45.58;100584.31;1906600;75;20988;-60
2022/07/26 07:00:29;;;;;;;4.15;1.90;;;;;;;30.44;45.87;100573.22;1906406;75;21509;-59
2022/07/26 07:02:58;;;;;;;5.10;1.80;;;;;;;30.15;46.28;100589.91;1906528;75;21024;-59
2022/07/26 07:05:26;;;;;;;2.42;1.40;;;;;;;29.45;47.22;100584.86;1906364;75;20980;-60
2022/07/26 07:07:55;;;;;;;3.40;1.60;;;;;;;28.91;48.29;100586.92;1906317;75;21008;-61
2022/07/26 07:10:23;;;;;;;3.15;2.08;;;;;;;28.37;49.38;100581.92;1906382;75;21016;-59
2022/07/26 07:12:52;;;;;;;2.00;1.80;;;;;;;28.01;50.18;100586.53;1906412;75;21486;-59
2022/07/26 07:15:21;;;;;;;4.47;2.12;;;;;;;27.88;50.57;100586.23;1906440;75;21032;-60
2022/07/26 07:17:51;;;;;;;6.72;1.87;;;;;;;27.72;50.84;100582.59;1906384;75;21032;-60
2022/07/26 07:20:19;;;;;;;3.15;2.02;;;;;;;27.59;51.21;100585.00;1906294;75;21028;-60
2022/07/26 07:22:48;;;;;;;2.60;1.80;;;;;;;27.51;51.65;100590.45;1906399;75;21627;-59
2022/07/26 07:25:17;;;;;;;5.22;1.70;;;;;;;27.31;51.95;100593.53;1906472;75;21048;-59
2022/07/26 07:27:46;;;;;;;4.62;2.00;;;;;;;27.19;52.47;100595.39;1906437;75;21040;-59
2022/07/26 07:30:15;;;;;;;1.70;1.60;;;;;;;27.11;53.08;100590.36;1906373;75;21023;-59
2022/07/26 07:32:44;;;;;;;3.80;1.80;;;;;;;27.03;53.70;100597.63;1906376;75;21059;-59
2022/07/26 07:35:13;;;;;;;3.00;1.90;;;;;;;26.93;54.04;100597.82;1906264;75;21131;-60
2022/07/26 07:37:41;;;;;;;1.95;1.47;;;;;;;26.91;54.31;100585.83;1906374;75;21028;-60
2022/07/26 07:40:11;;;;;;;2.77;1.75;;;;;;;27.06;54.37;100591.89;1906470;75;21149;-59
2022/07/26 07:42:40;;;;;;;3.77;1.45;;;;;;;27.14;54.29;100586.46;1906404;75;21145;-61
2022/07/26 07:45:10;;;;;;;3.10;1.65;;;;;;;27.14;54.38;100590.52;1906488;75;21021;-59
2022/07/26 07:47:39;;;;;;;3.55;1.62;;;;;;;27.15;54.45;100587.64;1906394;75;21024;-60
2022/07/26 07:50:08;;;;;;;3.12;1.85;;;;;;;27.07;54.42;100573.30;1906569;75;21110;-59
2022/07/26 07:52:37;;;;;;;2.00;1.60;;;;;;;27.16;54.34;100584.43;1906539;74;21166;-59
2022/07/26 07:55:06;;;;;;;3.58;1.62;;;;;;;27.80;53.77;100579.00;1906520;75;21021;-59
2022/07/26 07:57:35;;;;;;;1.70;1.60;;;;;;;28.62;52.69;100572.27;1906600;75;21025;-59
2022/07/26 08:00:06;;;;;;;1.72;1.20;;;;;;;28.59;51.77;100573.97;1906383;75;20996;-60
2022/07/26 08:02:36;;;;;;;1.32;1.22;;;;;;;28.57;51.37;100573.31;1906611;74;21502;-59
2022/07/26 08:05:08;;;;;;;2.25;1.80;;;;;;;28.24;51.34;100574.91;1906492;75;21505;-59
2022/07/26 08:07:36;;;;;;;1.55;1.40;;;;;;;28.00;51.97;100565.91;1906530;75;21028;-59
2022/07/26 08:10:06;;;;;;;1.87;1.40;;;;;;;28.07;52.02;100562.83;1906496;75;21028;-59
2022/07/26 08:12:34;;;;;;;2.08;1.25;;;;;;;28.07;50.96;100570.95;1906376;75;21514;-60
2022/07/26 08:15:04;;;;;;;8.45;2.02;;;;;;;27.92;50.79;100571.36;1906483;75;21020;-59
2022/07/26 08:17:33;;;;;;;4.12;1.47;;;;;;;27.87;50.96;100565.63;1906608;75;21020;-60
2022/07/26 08:20:01;;;;;;;2.80;1.90;;;;;;;27.85;51.18;100566.28;1906486;75;21032;-60
2022/07/26 08:22:30;;;;;;;2.35;1.47;;;;;;;28.05;51.28;100563.52;1906527;75;21063;-60
2022/07/26 08:24:59;;;;;;;3.55;1.60;;;;;;;28.98;50.10;100558.06;1906423;75;21036;-60
2022/07/26 08:27:27;;;;;;;3.15;1.40;;;;;;;29.99;48.01;100552.97;1906459;75;21623;-60
2022/07/26 08:29:56;;;;;;;1.32;1.22;;;;;;;30.52;47.10;100553.53;1906505;75;21005;-59
2022/07/26 08:32:25;;;;;;;8.33;1.72;;;;;;;31.00;43.06;100561.05;1906488;75;21106;-60
2022/07/26 08:34:54;;;;;;;4.03;1.20;;;;;;;31.23;42.95;100550.44;1906482;75;21113;-59
2022/07/26 08:37:23;;;;;;;3.15;1.80;;;;;;;31.44;41.89;100547.61;1906470;75;21400;-60
2022/07/26 08:39:51;;;;;;;3.15;1.70;;;;;;;31.74;42.16;100543.25;1906329;75;21036;-60
2022/07/26 08:42:22;;;;;;;1.35;1.20;;;;;;;32.03;41.58;100539.92;1906506;75;21634;-60
2022/07/26 08:44:51;;;;;;;2.62;1.70;;;;;;;32.21;41.01;100539.34;1906459;75;21075;-59
2022/07/26 08:47:22;;;;;;;2.00;1.47;;;;;;;32.27;40.71;100543.41;1906591;75;21541;-59
2022/07/26 08:49:50;;;;;;;2.42;1.42;;;;;;;32.32;40.42;100534.63;1906508;75;21142;-59
2022/07/26 08:52:19;;;;;;;2.08;1.22;;;;;;;32.65;40.19;100526.50;1906350;75;21028;-59
2022/07/26 08:54:50;;;;;;;2.30;1.57;;;;;;;32.82;39.33;100534.24;1906399;74;21056;-59
2022/07/26 08:57:19;;;;;;;3.10;1.50;;;;;;;32.81;39.06;100524.38;1906454;75;21093;-59
2022/07/26 08:59:50;;;;;;;2.52;1.60;;;;;;;32.74;38.50;100516.22;1906448;75;21020;-59
2022/07/26 09:02:19;;;;;;;5.72;2.00;;;;;;;32.58;38.46;100512.03;1901052;75;21000;-60
2022/07/26 09:04:47;;;;;;;2.70;1.50;;;;;;;32.50;37.26;100510.86;1906420;75;20988;-60
2022/07/26 09:07:18;;;;;;;2.22;1.40;;;;;;;32.49;38.03;100515.98;1906483;75;20997;-59
2022/07/26 09:09:59;;;;;;;2.50;1.32;;;;;;;32.41;37.43;100531.19;1906478;75;21118;-59
2022/07/26 09:12:29;;;;;;;5.00;1.60;;;;;;;32.41;37.16;100523.02;1906453;75;21098;-59
2022/07/26 09:15:00;;;;;;;1.95;1.57;;;;;;;32.41;37.68;100552.45;1906459;75;21028;-59
2022/07/26 09:17:43;;;;;;;3.27;1.50;;;;;;;32.47;37.88;100543.97;1906520;75;21093;-59
2022/07/26 09:20:17;;;;;;;2.50;1.90;;;;;;;32.31;37.92;100554.23;1906430;75;21048;-59
2022/07/26 09:23:04;;;;;;;3.98;1.60;;;;;;;32.28;37.49;100549.19;1906503;75;21020;-59
2022/07/26 09:25:35;;;;;;;4.85;1.82;;;;;;;32.41;37.61;100548.91;1906381;75;21032;-61
2022/07/26 09:28:06;;;;;;;3.35;1.80;;;;;;;31.96;37.42;100539.87;1906425;75;21101;-59
2022/07/26 09:30:35;;;;;;;4.10;1.92;;;;;;;31.53;38.32;100542.34;1905168;74;21471;-59
2022/07/26 09:33:06;;;;;;;2.90;2.27;;;;;;;31.43;38.68;100555.47;1906479;75;21016;-59
2022/07/26 09:35:37;;;;;;;2.42;1.87;;;;;;;31.38;39.28;100552.50;1906463;75;21067;-59
2022/07/26 09:38:16;;;;;;;2.83;2.00;;;;;;;31.35;39.17;100558.33;1906368;75;21000;-62
2022/07/26 09:40:45;;;;;;;2.87;2.58;;;;;;;31.45;39.61;100564.26;1906493;75;21522;-59
2022/07/26 09:43:15;;;;;;;4.35;2.15;;;;;;;31.05;40.08;100549.06;1906453;75;21016;-60
2022/07/26 09:45:44;;;;;;;4.83;2.25;;;;;;;30.78;40.84;100558.37;1906566;75;21529;-59
2022/07/26 09:48:12;;;;;;;2.70;1.70;;;;;;;30.63;41.27;100571.18;1906469;75;21024;-59
2022/07/26 09:50:44;;;;;;;2.40;1.65;;;;;;;30.46;41.63;100570.62;1906359;75;21552;-60
2022/07/26 09:53:14;;;;;;;5.50;2.30;;;;;;;30.10;42.08;100574.70;1906282;75;21502;-59
2022/07/26 09:55:48;;;;;;;6.03;2.05;;;;;;;29.99;43.36;100555.68;1906388;75;21044;-60
2022/07/26 09:58:17;;;;;;;3.30;2.25;;;;;;;30.05;42.91;100564.44;1906565;75;21430;-59
2022/07/26 10:00:46;;;;;;;2.40;1.95;;;;;;;30.15;42.79;100573.62;1906451;75;21012;-59
2022/07/26 10:03:14;;;;;;;4.95;1.77;;;;;;;30.06;42.12;100580.20;1906471;75;21028;-59
2022/07/26 10:05:43;;;;;;;5.08;2.10;;;;;;;29.72;43.00;100561.30;1906449;75;21024;-60
2022/07/26 10:08:13;;;;;;;4.80;2.12;;;;;;;29.49;43.88;100571.73;1906369;75;21475;-59
2022/07/26 10:10:47;;;;;;;3.55;2.52;;;;;;;29.32;44.72;100578.40;1906459;75;21148;-60
2022/07/26 10:13:17;;;;;;;5.35;2.47;;;;;;;29.20;45.78;100570.73;1905862;74;21545;-59
2022/07/26 10:15:48;;;;;;;5.78;2.30;;;;;;;29.40;45.72;100571.02;1906337;75;21431;-60
2022/07/26 10:18:38;;;;;;;5.10;2.27;;;;;;;29.54;44.87;100577.45;1906415;75;21024;-60
2022/07/26 10:21:24;;;;;;;2.80;2.35;;;;;;;29.81;44.98;100577.84;1906385;75;21217;-59
2022/07/26 10:24:00;;;;;;;2.90;1.70;;;;;;;30.09;43.97;100560.30;1906668;75;21055;-60
2022/07/26 10:26:35;;;;;;;2.55;1.50;;;;;;;30.01;43.72;100581.62;1906652;75;21039;-59
2022/07/26 10:29:26;;;;;;;3.75;2.50;;;;;;;29.83;44.27;100570.34;1906429;75;21000;-59
2022/07/26 10:32:04;;;;;;;5.50;2.83;;;;;;;29.69;44.58;100561.67;1906406;75;21460;-59
2022/07/26 10:34:35;;;;;;;4.78;2.92;;;;;;;29.67;44.92;100569.16;1906312;75;21028;-59
2022/07/26 10:37:07;;;;;;;3.20;2.33;;;;;;;29.66;45.29;100550.70;1906493;74;21036;-59
2022/07/26 10:39:37;;;;;;;7.28;2.37;;;;;;;29.67;45.14;100554.24;1906538;75;21446;-59
2022/07/26 10:42:08;;;;;;;4.10;1.90;;;;;;;29.44;45.56;100559.28;1906425;75;20988;-59
2022/07/26 10:44:40;;;;;;;4.00;1.90;;;;;;;29.21;46.13;100560.20;1906421;75;21577;-60
2022/07/26 10:47:14;;;;;;;3.33;2.37;;;;;;;29.10;46.36;100561.98;1906528;75;21087;-59
2022/07/26 10:49:57;;;;;;;3.15;2.47;;;;;;;29.13;46.73;100560.27;1906416;75;20992;-59
2022/07/26 10:52:32;;;;;;;3.67;2.02;;;;;;;29.00;47.01;100558.20;1906661;75;21018;-59
2022/07/26 10:55:04;;;;;;;4.28;2.80;;;;;;;28.96;47.38;100554.70;1906381;74;21075;-60
2022/07/26 10:57:38;;;;;;;2.35;1.67;;;;;;;28.95;47.60;100556.55;1906343;75;21090;-59
2022/07/26 11:00:12;;;;;;;5.67;2.87;;;;;;;29.15;47.44;100550.62;1906410;75;21036;-59
2022/07/26 11:02:42;;;;;;;3.85;2.00;;;;;;;29.45;46.93;100552.81;1905910;74;21450;-59
2022/07/26 11:05:14;;;;;;;3.15;2.10;;;;;;;29.36;46.47;100558.84;1906412;75;21004;-59
2022/07/26 11:07:51;;;;;;;2.98;1.67;;;;;;;29.28;46.65;100558.95;1906310;75;21036;-60
2022/07/26 11:10:32;;;;;;;4.78;2.00;;;;;;;29.27;46.33;100553.18;1906397;75;21024;-59
2022/07/26 11:13:16;;;;;;;5.42;2.05;;;;;;;29.39;46.32;100559.00;1905963;74;21008;-59
2022/07/26 11:15:47;;;;;;;14.53;3.08;;;;;;;29.59;46.32;100551.12;1906371;75;21581;-59
2022/07/26 11:18:23;;;;;;;1.72;1.37;;;;;;;29.75;45.93;100563.16;1906390;75;21490;-60
2022/07/26 11:20:54;;;;;;;4.45;2.17;;;;;;;29.80;46.17;100554.43;1906482;75;21072;-59
2022/07/26 11:23:25;;;;;;;5.45;2.72;;;;;;;29.73;46.10;100553.47;1906509;75;21048;-59
2022/07/26 11:26:05;;;;;;;2.87;1.85;;;;;;;29.59;46.37;100546.53;1906396;75;21028;-59
2022/07/26 11:28:54;;;;;;;6.03;2.67;;;;;;;29.48;46.61;100556.52;1906310;75;21028;-60
2022/07/26 11:31:41;;;;;;;7.08;3.60;;;;;;;29.51;46.94;100545.78;1906297;74;21021;-59
2022/07/26 11:34:12;;;;;;;5.25;3.58;;;;;;;29.21;47.18;100565.62;1906386;75;21109;-59
2022/07/26 11:36:43;;;;;;;5.45;2.27;;;;;;;29.04;48.19;100576.29;1904577;74;21125;-59